Time;durP1;ratioP1;P1;durP2;ratioP2;P2;SDS_P1;SDS_P2;PMS_P1;PMS_P2;Temp;Humidity;BMP_temperature;BMP_pressure;BME280_temperature;BME280_humidity;BME280_pressure;Samples;Min_cycle;Max_cycle;Signal;HPM_P1;HPM_P2
2021/11/23 00:01:59;;;;;;;48.10;28.10;;;;;;;1.66;78.20;100717.06;103394;1317;112617;-65
2021/11/23 00:04:44;;;;;;;46.30;28.00;;;;;;;1.73;78.19;100714.55;104295;1315;139160;-66
2021/11/23 00:07:16;;;;;;;44.30;27.30;;;;;;;1.76;78.01;100709.95;104364;1316;108745;-65
2021/11/23 00:09:49;;;;;;;44.20;27.80;;;;;;;1.78;78.23;100708.27;104238;1314;305483;-65
2021/11/23 00:12:22;;;;;;;45.10;28.60;;;;;;;1.83;78.44;100704.91;104275;1317;138631;-65
2021/11/23 00:14:55;;;;;;;43.80;26.40;;;;;;;1.87;78.00;100697.21;104482;1315;110893;-65
2021/11/23 00:17:27;;;;;;;36.30;25.00;;;;;;;1.87;77.77;100701.33;104298;1317;139186;-65
2021/11/23 00:20:00;;;;;;;39.10;23.90;;;;;;;1.86;77.73;100702.52;104305;1317;107285;-65
2021/11/23 00:22:32;;;;;;;36.80;22.70;;;;;;;1.89;77.90;100704.60;104340;1315;96262;-65
2021/11/23 00:25:06;;;;;;;37.30;22.20;;;;;;;1.96;77.93;100711.36;104267;1316;138943;-65
2021/11/23 00:27:39;;;;;;;37.60;23.10;;;;;;;1.99;78.06;100717.07;103595;1317;112539;-65
2021/11/23 00:30:12;;;;;;;40.70;24.00;;;;;;;2.01;78.03;100717.95;104307;1314;138533;-65
2021/11/23 00:32:44;;;;;;;36.70;23.60;;;;;;;2.02;77.97;100718.14;103306;1317;109034;-65
2021/11/23 00:35:18;;;;;;;41.70;25.20;;;;;;;2.04;77.96;100719.88;103377;1316;138313;-65
2021/11/23 00:37:51;;;;;;;41.60;26.30;;;;;;;2.00;78.06;100720.69;104384;1317;96073;-65
2021/11/23 00:40:24;;;;;;;42.40;25.60;;;;;;;1.98;78.04;100728.04;104303;1316;112913;-65
2021/11/23 00:43:03;;;;;;;39.40;25.40;;;;;;;1.97;78.22;100732.45;104302;1317;138685;-66
2021/11/23 00:45:37;;;;;;;39.30;24.90;;;;;;;1.98;78.18;100733.86;104411;1317;107876;-65
2021/11/23 00:48:10;;;;;;;37.60;23.60;;;;;;;1.98;78.17;100731.13;104345;1318;139163;-65
2021/11/23 00:50:42;;;;;;;41.00;25.40;;;;;;;2.02;78.31;100738.20;103839;1315;96128;-65
2021/11/23 00:53:14;;;;;;;45.50;28.10;;;;;;;2.04;78.21;100735.31;104307;1313;136814;-63
2021/11/23 00:55:47;;;;;;;50.80;28.70;;;;;;;2.02;78.13;100730.48;103662;1317;108331;-64
2021/11/23 00:58:19;;;;;;;52.10;29.90;;;;;;;2.02;78.36;100731.86;104415;1312;108967;-64
2021/11/23 18:02:11;;;;;;;40.10;27.40;;;;;;;3.74;83.97;100795.96;102965;1302;112262;-62
2021/11/23 18:04:45;;;;;;;41.30;28.70;;;;;;;3.72;83.77;100793.90;103023;1313;109311;-63
2021/11/23 18:07:18;;;;;;;43.50;29.30;;;;;;;3.68;83.60;100798.70;102925;1314;139640;-62
2021/11/23 18:09:51;;;;;;;47.70;29.00;;;;;;;3.66;83.72;100800.93;102969;1302;97762;-63
2021/11/23 18:12:24;;;;;;;42.30;28.40;;;;;;;3.60;83.43;100804.34;103163;1313;137850;-63
2021/11/23 18:14:56;;;;;;;42.80;27.80;;;;;;;3.52;83.42;100804.63;103369;1317;112473;-63
2021/11/23 18:17:28;;;;;;;41.20;26.60;;;;;;;3.47;83.59;100806.16;103303;1317;139654;-63
2021/11/23 18:20:01;;;;;;;41.70;26.90;;;;;;;3.42;83.63;100800.30;103432;1313;108156;-63
2021/11/23 18:22:34;;;;;;;42.00;26.50;;;;;;;3.44;83.82;100804.42;103400;1314;98047;-63
2021/11/23 18:25:08;;;;;;;40.90;26.50;;;;;;;3.44;83.95;100808.04;103381;1312;138377;-63
2021/11/23 18:27:40;;;;;;;41.70;27.90;;;;;;;3.42;83.55;100804.58;104604;1314;112535;-63
2021/11/23 18:30:16;;;;;;;40.70;29.00;;;;;;;3.40;83.76;100806.80;103926;1316;138481;-62
2021/11/23 18:32:48;;;;;;;47.90;30.80;;;;;;;3.41;84.12;100806.64;104706;1313;108805;-64
2021/11/23 18:35:23;;;;;;;43.70;28.90;;;;;;;3.41;84.03;100809.72;104351;1315;138122;-64
2021/11/23 18:37:58;;;;;;;43.00;28.70;;;;;;;3.40;84.01;100804.04;103935;1317;96824;-64
2021/11/23 18:40:40;;;;;;;42.50;28.10;;;;;;;3.40;84.16;100802.83;104592;1314;112447;-64
2021/11/23 18:43:24;;;;;;;42.50;28.50;;;;;;;3.45;84.30;100800.14;104637;1314;138777;-64
2021/11/23 18:45:58;;;;;;;48.50;29.80;;;;;;;3.48;84.28;100800.66;104657;1316;108217;-64
2021/11/23 18:48:35;;;;;;;45.70;29.90;;;;;;;3.51;83.90;100796.71;103836;1319;138851;-65
2021/11/23 18:51:07;;;;;;;48.70;31.10;;;;;;;3.51;84.11;100796.20;104583;1316;96235;-66
2021/11/23 18:53:39;;;;;;;46.70;30.50;;;;;;;3.52;83.99;100801.88;103764;1316;138047;-65
2021/11/23 18:56:12;;;;;;;44.70;29.50;;;;;;;3.50;84.26;100804.97;104513;1318;109183;-66
2021/11/23 18:58:44;;;;;;;49.30;29.30;;;;;;;3.52;84.19;100806.35;104668;1313;110344;-64
2021/11/23 19:01:16;;;;;;;44.90;29.40;;;;;;;3.49;84.00;100811.33;104459;1313;137624;-63
2021/11/23 19:03:49;;;;;;;45.70;28.80;;;;;;;3.53;84.18;100810.66;104708;1317;95966;-64
2021/11/23 19:06:22;;;;;;;45.10;28.80;;;;;;;3.57;84.07;100811.88;104654;1316;139267;-63
2021/11/23 19:08:54;;;;;;;47.50;30.50;;;;;;;3.59;84.00;100810.02;103638;1317;107856;-65
2021/11/23 19:11:26;;;;;;;48.70;31.30;;;;;;;3.63;84.18;100810.55;103650;1313;138326;-64
2021/11/23 19:13:59;;;;;;;52.20;31.50;;;;;;;3.67;84.30;100810.05;103731;1318;96517;-64
2021/11/23 19:16:31;;;;;;;47.90;31.10;;;;;;;3.67;84.16;100811.59;104686;1317;96196;-65
2021/11/23 19:19:04;;;;;;;48.20;31.30;;;;;;;3.69;84.22;100812.98;103571;1318;139853;-64
2021/11/23 19:21:38;;;;;;;50.40;31.00;;;;;;;3.71;84.18;100810.06;104657;1314;107195;-64
2021/11/23 19:24:11;;;;;;;47.40;30.50;;;;;;;3.75;84.29;100812.30;104332;1316;139736;-64
2021/11/23 19:26:43;;;;;;;48.50;31.00;;;;;;;3.78;84.36;100810.98;104221;1315;96117;-65
2021/11/23 19:29:18;;;;;;;50.10;31.50;;;;;;;3.81;84.14;100814.59;104548;1315;138017;-66
2021/11/23 19:31:50;;;;;;;54.20;31.40;;;;;;;3.82;83.98;100810.80;103846;1313;111459;-66
2021/11/23 19:34:24;;;;;;;51.10;32.00;;;;;;;3.83;83.83;100808.75;104709;1312;109183;-66
2021/11/23 19:36:57;;;;;;;52.20;31.40;;;;;;;3.82;83.93;100812.02;103770;1319;138025;-66
2021/11/23 19:39:29;;;;;;;50.80;31.60;;;;;;;3.82;83.79;100812.53;104692;1312;96031;-66
2021/11/23 19:42:01;;;;;;;49.90;30.70;;;;;;;3.81;83.83;100814.93;104001;1317;139261;-65
2021/11/23 19:44:34;;;;;;;51.90;32.00;;;;;;;3.85;83.96;100814.95;103209;1312;112434;-66
2021/11/23 19:47:07;;;;;;;49.80;30.90;;;;;;;3.89;84.28;100820.98;103028;1313;140564;-65
2021/11/23 19:49:40;;;;;;;49.90;31.90;;;;;;;3.94;84.11;100820.48;103118;1312;108920;-66
2021/11/23 19:52:13;;;;;;;52.00;32.50;;;;;;;3.98;84.33;100827.56;103154;1314;97844;-65
2021/11/23 19:54:45;;;;;;;57.40;34.10;;;;;;;3.99;83.93;100832.90;103096;1313;138015;-65
2021/11/23 19:57:18;;;;;;;61.90;36.50;;;;;;;3.95;84.10;100833.40;103306;1316;113791;-65
2021/11/23 19:59:50;;;;;;;55.10;34.30;;;;;;;3.93;84.18;100833.02;103063;1314;137989;-65
2021/11/23 20:02:27;;;;;;;57.20;34.80;;;;;;;3.92;84.31;100828.20;103184;1314;107293;-63
2021/11/23 20:05:00;;;;;;;56.80;32.50;;;;;;;3.94;84.42;100829.60;104722;1313;96160;-64
2021/11/23 20:07:34;;;;;;;56.10;32.40;;;;;;;3.97;84.30;100833.42;104486;1314;139233;-63
2021/11/23 20:10:08;;;;;;;54.50;32.40;;;;;;;4.00;84.61;100841.85;104196;1313;112539;-63
2021/11/23 20:12:41;;;;;;;58.40;34.00;;;;;;;4.05;84.61;100842.04;103798;1318;138504;-64
2021/11/23 20:15:18;;;;;;;60.80;36.00;;;;;;;4.08;84.58;100847.89;103723;1314;109074;-64
2021/11/23 20:17:53;;;;;;;59.70;36.20;;;;;;;4.15;84.70;100847.08;103883;1313;138452;-65
2021/11/23 20:20:29;;;;;;;65.70;37.10;;;;;;;4.18;84.48;100847.95;103710;1314;96616;-65
2021/11/23 20:23:02;;;;;;;58.50;36.60;;;;;;;4.17;84.44;100848.80;104660;1316;113717;-65
2021/11/23 20:25:35;;;;;;;60.10;35.90;;;;;;;4.20;84.54;100849.16;104576;1313;138843;-66
2021/11/23 20:28:09;;;;;;;59.10;34.50;;;;;;;4.19;84.24;100850.35;104175;1313;108923;-65
2021/11/23 20:30:42;;;;;;;55.70;34.30;;;;;;;4.18;84.17;100849.84;103972;1313;140241;-64
2021/11/23 20:33:15;;;;;;;58.80;35.30;;;;;;;4.20;84.18;100854.14;103880;1314;96077;-64
2021/11/23 20:35:48;;;;;;;56.70;35.10;;;;;;;4.21;84.06;100853.28;104583;1313;139583;-64
2021/11/23 20:38:21;;;;;;;59.50;35.40;;;;;;;4.26;84.55;100853.80;104703;1313;108773;-64
2021/11/23 20:40:54;;;;;;;61.70;36.10;;;;;;;4.28;84.35;100854.33;104460;1318;108930;-62
2021/11/23 20:43:26;;;;;;;65.20;35.50;;;;;;;4.28;84.12;100852.27;104484;1314;138485;-64
2021/11/23 20:46:00;;;;;;;57.50;33.90;;;;;;;4.27;84.01;100848.30;103384;1313;97824;-63
2021/11/23 20:48:33;;;;;;;55.40;33.00;;;;;;;4.27;83.91;100852.44;103276;1314;139352;-63
2021/11/23 20:51:06;;;;;;;55.50;33.40;;;;;;;4.27;84.11;100850.36;104696;1313;108779;-63
2021/11/23 20:53:42;;;;;;;55.60;31.90;;;;;;;4.31;84.44;100853.66;104558;1313;139766;-65
2021/11/23 20:56:18;;;;;;;55.20;32.50;;;;;;;4.37;84.33;100853.69;103410;1313;97831;-64
2021/11/23 20:58:51;;;;;;;52.30;31.40;;;;;;;4.42;84.37;100851.80;103351;1313;97843;-64
2021/11/23 21:01:26;;;;;;;49.40;30.50;;;;;;;4.45;84.29;100853.69;103300;1313;138299;-64
2021/11/23 21:04:05;;;;;;;55.40;32.00;;;;;;;4.49;84.63;100851.13;103972;1312;108946;-64
2021/11/23 21:06:40;;;;;;;54.60;33.10;;;;;;;4.52;84.33;100848.90;104543;1312;138680;-65
2021/11/23 21:09:19;;;;;;;57.40;33.10;;;;;;;4.53;84.34;100848.21;103908;1318;96367;-65
2021/11/23 21:11:53;;;;;;;51.70;31.70;;;;;;;4.56;84.34;100845.81;104558;1311;138940;-64
2021/11/23 21:14:26;;;;;;;52.20;29.50;;;;;;;4.59;83.94;100845.46;104687;1313;111332;-64
2021/11/23 21:17:06;;;;;;;57.10;32.60;;;;;;;4.62;84.20;100846.33;104548;1313;109242;-64
2021/11/23 21:19:42;;;;;;;52.90;30.90;;;;;;;4.69;84.41;100845.30;104581;1314;138948;-64
2021/11/23 21:22:17;;;;;;;53.90;32.60;;;;;;;4.75;84.20;100845.14;103927;1320;95939;-64
2021/11/23 21:24:50;;;;;;;53.80;31.50;;;;;;;4.75;83.79;100838.25;104639;1312;138037;-64
2021/11/23 21:27:25;;;;;;;59.60;34.60;;;;;;;4.72;83.96;100837.39;104350;1313;111568;-64
2021/11/23 21:30:02;;;;;;;62.70;34.90;;;;;;;4.75;84.20;100834.47;104587;1313;138794;-64
2021/11/23 21:32:35;;;;;;;61.00;35.30;;;;;;;4.77;84.15;100829.63;104717;1313;107992;-64
2021/11/23 21:35:10;;;;;;;66.50;35.70;;;;;;;4.76;84.05;100837.05;104685;1314;96278;-63
2021/11/23 21:37:50;;;;;;;65.30;36.10;;;;;;;4.75;83.99;100831.70;104299;1314;138419;-64
2021/11/23 21:40:31;;;;;;;62.80;35.00;;;;;;;4.78;84.16;100838.95;103362;1312;113042;-64
2021/11/23 21:43:22;;;;;;;60.00;35.50;;;;;;;4.77;84.09;100836.88;103379;1313;139555;-63
2021/11/23 21:48:46;;;;;;;71.80;38.80;;;;;;;4.83;84.42;100834.98;103206;1313;138343;-63
2021/11/23 21:51:18;;;;;;;64.40;35.90;;;;;;;4.84;84.54;100833.44;103608;1318;98055;-63
2021/11/23 21:53:54;;;;;;;62.30;34.40;;;;;;;4.80;84.15;100833.25;104584;1313;139070;-64
2021/11/23 21:56:26;;;;;;;64.50;35.70;;;;;;;4.76;84.30;100831.70;104482;1313;109004;-64
2021/11/23 21:58:59;;;;;;;59.00;33.30;;;;;;;4.77;84.50;100830.33;104487;1316;109434;-64
2021/11/23 22:01:32;;;;;;;59.80;35.20;;;;;;;4.76;84.53;100833.25;104541;1316;138927;-64
2021/11/23 22:04:04;;;;;;;66.50;36.10;;;;;;;4.80;84.57;100837.04;104665;1313;96077;-64
2021/11/23 22:06:37;;;;;;;60.00;34.80;;;;;;;4.85;84.74;100838.27;103724;1313;138214;-63
2021/11/23 22:09:09;;;;;;;61.90;36.10;;;;;;;4.87;84.29;100844.13;103416;1312;109139;-65
2021/11/23 22:11:42;;;;;;;62.20;37.60;;;;;;;4.84;84.42;100843.24;103229;1314;138429;-65
2021/11/23 22:14:14;;;;;;;60.80;35.00;;;;;;;4.82;84.33;100841.17;103324;1312;97985;-63
2021/11/23 22:16:47;;;;;;;61.50;35.10;;;;;;;4.83;84.50;100847.72;103638;1312;97965;-65
2021/11/23 22:19:20;;;;;;;60.50;35.40;;;;;;;4.83;84.61;100845.14;103228;1314;138896;-64
2021/11/23 22:21:53;;;;;;;59.10;34.20;;;;;;;4.85;84.43;100838.96;103770;1318;109215;-65
2021/11/23 22:24:25;;;;;;;65.80;35.30;;;;;;;4.88;84.66;100836.55;103557;1313;140150;-64
2021/11/23 22:26:58;;;;;;;61.90;35.90;;;;;;;4.93;84.66;100834.30;103405;1313;97956;-64
2021/11/23 22:29:31;;;;;;;60.90;34.80;;;;;;;4.95;84.75;100834.48;103210;1313;138191;-64
2021/11/23 22:32:04;;;;;;;63.30;36.00;;;;;;;4.95;84.57;100837.58;103373;1317;112653;-65
2021/11/23 22:34:37;;;;;;;70.20;38.90;;;;;;;4.93;84.53;100837.75;104691;1313;108916;-64
2021/11/23 22:37:09;;;;;;;64.80;37.50;;;;;;;4.95;85.00;100841.02;103708;1317;138682;-64
2021/11/23 22:39:42;;;;;;;59.60;34.60;;;;;;;4.98;84.65;100838.43;104718;1312;96625;-65
2021/11/23 22:42:15;;;;;;;64.60;34.80;;;;;;;4.99;84.78;100841.19;104612;1312;138745;-64
2021/11/23 22:44:49;;;;;;;58.70;34.70;;;;;;;4.99;84.75;100834.13;104648;1313;111677;-64
2021/11/23 22:47:21;;;;;;;64.40;35.00;;;;;;;4.99;84.55;100832.23;104409;1314;139338;-64
2021/11/23 22:49:55;;;;;;;56.80;33.50;;;;;;;5.03;84.66;100833.80;104685;1313;108975;-68
2021/11/23 22:52:28;;;;;;;55.70;34.20;;;;;;;5.02;84.35;100833.62;103679;1313;97860;-63
2021/11/23 22:55:01;;;;;;;61.40;35.40;;;;;;;5.02;84.47;100829.81;103134;1313;138411;-64
2021/11/23 22:57:34;;;;;;;62.90;35.30;;;;;;;5.01;84.42;100832.56;104665;1314;111621;-64
2021/11/23 23:00:11;;;;;;;57.90;33.20;;;;;;;4.99;84.43;100831.36;103951;1313;139006;-64
2021/11/23 23:02:44;;;;;;;58.40;33.90;;;;;;;4.98;84.76;100832.39;103568;1314;109083;-64
2021/11/23 23:05:17;;;;;;;55.00;32.00;;;;;;;4.98;84.56;100826.88;103307;1314;97862;-64
2021/11/23 23:07:50;;;;;;;56.50;32.10;;;;;;;4.99;84.44;100828.09;104287;1310;139317;-64
2021/11/23 23:10:23;;;;;;;60.90;32.80;;;;;;;4.99;84.54;100824.98;103727;1313;113883;-64
2021/11/23 23:12:56;;;;;;;57.60;32.90;;;;;;;5.01;84.82;100822.91;104575;1313;142622;-63
2021/11/23 23:15:28;;;;;;;60.70;33.10;;;;;;;5.02;84.63;100822.91;104385;1313;108896;-63
2021/11/23 23:18:01;;;;;;;59.90;33.60;;;;;;;5.00;84.58;100821.37;104511;1308;139330;-65
2021/11/23 23:20:33;;;;;;;60.70;34.60;;;;;;;4.98;84.54;100824.98;104723;1313;97223;-65
2021/11/23 23:23:06;;;;;;;61.30;34.70;;;;;;;4.96;84.80;100825.34;104729;1313;111476;-64
2021/11/23 23:25:38;;;;;;;58.40;33.50;;;;;;;4.96;84.78;100826.02;103792;1313;139586;-64
2021/11/23 23:28:12;;;;;;;59.60;34.00;;;;;;;4.96;84.82;100828.09;103418;1313;111105;-64
2021/11/23 23:30:47;;;;;;;60.60;32.70;;;;;;;4.96;84.74;100826.36;103295;1312;139430;-64
2021/11/23 23:33:24;;;;;;;61.50;33.60;;;;;;;4.97;84.82;100828.27;103764;1320;96071;-64
2021/11/23 23:35:55;;;;;;;64.10;34.90;;;;;;;5.00;85.03;100824.64;103592;1313;139499;-64
2021/11/23 23:38:29;;;;;;;59.60;34.40;;;;;;;4.99;84.88;100824.30;103451;1312;109013;-65
2021/11/23 23:41:01;;;;;;;64.60;35.50;;;;;;;4.99;84.72;100821.19;103401;1313;108424;-64
2021/11/23 23:43:34;;;;;;;63.00;34.80;;;;;;;4.98;84.88;100826.20;103659;1313;138731;-64
2021/11/23 23:46:07;;;;;;;64.00;34.00;;;;;;;4.96;84.87;100822.23;103398;1313;97868;-64
2021/11/23 23:48:39;;;;;;;58.80;33.50;;;;;;;4.95;84.75;100819.65;103340;1313;138450;-67
2021/11/23 23:51:12;;;;;;;62.60;32.70;;;;;;;4.94;84.93;100819.65;103464;1313;109072;-64
2021/11/23 23:53:45;;;;;;;58.50;31.90;;;;;;;4.94;84.90;100821.89;103433;1313;139532;-65
2021/11/23 23:56:17;;;;;;;59.80;32.60;;;;;;;4.95;85.36;100823.77;103914;1313;98384;-65
2021/11/23 23:58:50;;;;;;;60.60;32.70;;;;;;;4.98;85.35;100824.64;104703;1316;95791;-65
